Time;durP1;ratioP1;P1;durP2;ratioP2;P2;SDS_P1;SDS_P2;PMS_P1;PMS_P2;Temp;Humidity;BMP_temperature;BMP_pressure;BME280_temperature;BME280_humidity;BME280_pressure;Samples;Min_cycle;Max_cycle;Signal;HPM_P1;HPM_P2
2023/04/14 00:01:24;;;;;;;2.55;1.63;;;5.90;99.90;;;;;;5103724;28;20044;-72
2023/04/14 00:03:50;;;;;;;6.88;1.38;;;6.00;99.90;;;;;;5109161;28;20047;-71
2023/04/14 00:06:16;;;;;;;3.55;1.48;;;5.90;99.90;;;;;;5109531;28;20610;-70
2023/04/14 00:08:42;;;;;;;3.97;1.40;;;6.00;99.90;;;;;;5091183;28;20134;-71
2023/04/14 00:11:07;;;;;;;4.30;1.30;;;5.90;99.90;;;;;;5102185;28;20070;-70
2023/04/14 00:13:33;;;;;;;3.47;1.00;;;5.90;99.90;;;;;;5110193;28;20044;-71
2023/04/14 00:15:59;;;;;;;1.80;1.38;;;5.80;99.90;;;;;;5109699;28;20382;-71
2023/04/14 00:18:24;;;;;;;7.47;1.83;;;5.70;99.90;;;;;;5099981;28;20593;-71
2023/04/14 00:20:50;;;;;;;4.82;2.08;;;5.70;99.90;;;;;;5090169;28;20119;-70
2023/04/14 00:23:17;;;;;;;5.60;1.55;;;5.60;99.90;;;;;;5077108;28;20393;-70
2023/04/14 00:25:43;;;;;;;2.72;1.30;;;5.50;99.90;;;;;;5092141;28;20044;-70
2023/04/14 00:28:08;;;;;;;1.63;1.20;;;5.60;99.90;;;;;;5074488;28;20055;-70
2023/04/14 00:30:34;;;;;;;4.90;1.40;;;5.50;99.90;;;;;;5075215;28;20055;-70
2023/04/14 00:32:59;;;;;;;1.45;1.35;;;5.70;99.90;;;;;;5094292;28;20044;-70
2023/04/14 00:35:25;;;;;;;4.50;1.42;;;5.60;99.90;;;;;;5100116;28;20044;-71
2023/04/14 00:37:51;;;;;;;6.97;1.40;;;5.60;99.90;;;;;;5088551;28;20052;-71
2023/04/14 00:40:17;;;;;;;2.97;1.35;;;5.50;99.90;;;;;;5074268;28;20109;-71
2023/04/14 00:42:43;;;;;;;3.88;1.88;;;5.50;99.90;;;;;;5105051;28;20058;-71
2023/04/14 00:45:10;;;;;;;5.10;1.30;;;5.40;99.90;;;;;;5112892;28;20101;-71
2023/04/14 00:47:36;;;;;;;;;;;5.40;99.90;;;;;;5113345;28;20055;-71
2023/04/14 00:50:02;;;;;;;3.85;1.52;;;5.30;99.90;;;;;;5112875;28;19919;-70
2023/04/14 00:52:30;;;;;;;2.13;1.10;;;5.20;99.90;;;;;;5094595;28;20087;-71
2023/04/14 00:54:56;;;;;;;5.55;1.52;;;5.10;99.90;;;;;;5113634;28;20035;-71
2023/04/14 00:57:23;;;;;;;3.42;1.48;;;5.00;99.90;;;;;;5112241;28;20439;-70
2023/04/14 00:59:48;;;;;;;3.05;1.45;;;5.00;99.90;;;;;;5089638;28;20058;-71
2023/04/14 01:02:14;;;;;;;1.98;1.42;;;5.00;99.90;;;;;;5105658;28;20048;-70
2023/04/14 01:04:40;;;;;;;4.70;1.60;;;4.90;99.90;;;;;;5092756;28;20048;-71
2023/04/14 01:07:06;;;;;;;3.40;1.63;;;4.90;99.90;;;;;;5091307;28;20051;-71
2023/04/14 01:09:32;;;;;;;4.80;1.65;;;4.90;99.90;;;;;;5112599;28;20067;-70
2023/04/14 01:12:22;;;;;;;5.03;1.63;;;4.90;99.90;;;;;;5113346;28;20087;-70
2023/04/14 01:15:10;;;;;;;3.35;1.80;;;5.00;99.90;;;;;;5095178;28;20059;-70
2023/04/14 01:18:11;;;;;;;3.90;1.65;;;5.10;99.90;;;;;;5091184;28;20105;-70
2023/04/14 01:20:43;;;;;;;2.25;1.40;;;5.10;99.90;;;;;;5103324;28;20134;-70
2023/04/14 01:23:14;;;;;;;4.70;1.80;;;5.20;99.90;;;;;;5093556;28;20791;-70
2023/04/14 01:25:52;;;;;;;5.47;1.70;;;5.20;99.90;;;;;;5095041;28;20048;-70
2023/04/14 01:28:53;;;;;;;2.75;1.20;;;5.30;99.90;;;;;;5111293;28;20450;-70
2023/04/14 01:31:19;;;;;;;6.55;1.70;;;5.30;99.90;;;;;;5094362;28;20051;-70
2023/04/14 01:34:02;;;;;;;2.40;1.73;;;5.30;99.90;;;;;;5110818;28;20054;-70
2023/04/14 01:36:38;;;;;;;3.88;1.85;;;5.40;99.90;;;;;;5090894;28;20060;-71
2023/04/14 01:39:06;;;;;;;;;;;5.40;99.90;;;;;;5077156;28;20409;-74
2023/04/14 01:41:33;;;;;;;3.72;1.70;;;5.40;99.90;;;;;;5095713;28;19927;-70
2023/04/14 01:44:02;;;;;;;4.95;1.90;;;5.50;99.90;;;;;;5092142;28;20064;-71
2023/04/14 01:46:28;;;;;;;3.95;1.67;;;5.50;99.90;;;;;;5101700;28;20043;-73
2023/04/14 01:48:55;;;;;;;4.30;1.80;;;5.60;99.90;;;;;;5093570;28;20051;-69
2023/04/14 01:51:21;;;;;;;5.55;1.83;;;5.60;99.90;;;;;;5109180;28;20051;-70
2023/04/14 01:53:49;;;;;;;5.60;2.05;;;5.80;99.90;;;;;;5079677;28;20056;-70
2023/04/14 01:56:16;;;;;;;5.50;1.65;;;5.70;99.90;;;;;;5108188;28;20066;-70
2023/04/14 01:58:45;;;;;;;5.80;2.00;;;5.70;99.90;;;;;;5106630;28;20481;-70
2023/04/14 02:01:11;;;;;;;3.63;1.60;;;5.70;99.90;;;;;;5063590;28;20055;-71
2023/04/14 02:03:39;;;;;;;3.53;1.75;;;5.70;99.90;;;;;;5090458;28;20909;-70
2023/04/14 02:06:06;;;;;;;3.88;1.63;;;5.70;99.90;;;;;;5056670;28;20047;-72
2023/04/14 02:08:34;;;;;;;8.38;2.10;;;5.70;99.90;;;;;;5080984;28;20553;-71
2023/04/14 02:11:01;;;;;;;7.97;1.90;;;5.70;99.90;;;;;;5078956;28;20451;-70
2023/04/14 02:13:29;;;;;;;7.05;1.77;;;5.70;99.90;;;;;;5111557;28;20052;-71
2023/04/14 02:15:58;;;;;;;4.82;1.90;;;5.60;99.90;;;;;;5093971;28;20047;-70
2023/04/14 02:18:25;;;;;;;6.10;1.80;;;5.70;99.90;;;;;;5110107;28;20051;-70
2023/04/14 02:20:54;;;;;;;6.18;2.17;;;5.70;99.90;;;;;;5094129;28;20442;-70
2023/04/14 02:23:20;;;;;;;4.85;1.90;;;5.70;99.90;;;;;;5108210;28;20463;-70
2023/04/14 02:25:54;;;;;;;3.53;1.90;;;5.70;99.90;;;;;;5088479;28;20067;-71
2023/04/14 02:28:25;;;;;;;6.00;1.95;;;5.70;99.90;;;;;;5091063;28;20105;-70
2023/04/14 02:30:53;;;;;;;6.60;2.00;;;5.70;99.90;;;;;;5093526;28;20074;-70
2023/04/14 02:33:21;;;;;;;3.70;1.70;;;5.70;99.90;;;;;;5089544;28;20052;-71
2023/04/14 02:35:50;;;;;;;6.50;1.95;;;5.60;99.90;;;;;;5111865;28;20048;-70
2023/04/14 02:38:49;;;;;;;7.70;2.80;;;5.60;99.90;;;;;;5094625;28;20512;-70
2023/04/14 02:41:22;;;;;;;5.35;2.05;;;5.60;99.90;;;;;;5110731;28;20527;-70
2023/04/14 02:44:08;;;;;;;6.95;2.03;;;5.60;99.90;;;;;;5109287;28;20052;-70
2023/04/14 02:46:39;;;;;;;6.38;2.35;;;5.50;99.90;;;;;;5064451;28;20135;-70
2023/04/14 02:49:06;;;;;;;5.82;2.13;;;5.50;99.90;;;;;;5090783;28;20103;-71
2023/04/14 02:51:37;;;;;;;5.57;1.90;;;5.50;99.90;;;;;;5075951;28;20090;-71
2023/04/14 02:54:06;;;;;;;6.05;2.10;;;5.40;99.90;;;;;;5092221;28;20477;-71
2023/04/14 02:56:34;;;;;;;4.18;2.10;;;5.40;99.90;;;;;;5110800;28;20092;-70
2023/04/14 02:59:00;;;;;;;7.97;2.15;;;5.40;99.90;;;;;;5093224;28;20443;-70
2023/04/14 03:01:27;;;;;;;7.78;2.38;;;5.40;99.90;;;;;;5110744;28;20051;-70
2023/04/14 03:03:56;;;;;;;5.85;2.10;;;5.40;99.90;;;;;;5108001;28;20444;-71
2023/04/14 03:06:23;;;;;;;9.40;2.03;;;5.30;99.90;;;;;;5094383;28;20040;-71
2023/04/14 03:08:51;;;;;;;4.05;2.60;;;5.30;99.90;;;;;;5089546;28;20397;-70
2023/04/14 03:11:17;;;;;;;7.70;2.50;;;5.30;99.90;;;;;;5072073;28;20109;-71
2023/04/14 03:13:45;;;;;;;9.50;2.47;;;5.30;99.90;;;;;;5055882;28;20456;-70
2023/04/14 03:16:12;;;;;;;6.80;2.20;;;5.30;99.90;;;;;;5072591;28;20056;-73
2023/04/14 03:18:38;;;;;;;8.02;2.03;;;5.30;99.90;;;;;;5088341;28;20068;-70
2023/04/14 03:21:05;;;;;;;6.85;2.10;;;5.20;99.90;;;;;;5089623;28;20059;-70
2023/04/14 03:23:32;;;;;;;8.00;2.20;;;5.20;99.90;;;;;;5090464;28;20039;-70
2023/04/14 03:26:00;;;;;;;6.43;1.92;;;5.10;99.90;;;;;;5092958;28;20056;-70
2023/04/14 03:28:29;;;;;;;6.95;2.70;;;5.00;99.90;;;;;;5087267;28;20048;-70
2023/04/14 03:30:56;;;;;;;5.38;2.50;;;5.10;99.90;;;;;;5072550;28;20061;-70
2023/04/14 03:33:26;;;;;;;10.70;2.65;;;5.00;99.90;;;;;;5089173;28;20127;-70
2023/04/14 03:35:57;;;;;;;8.35;2.33;;;5.00;99.90;;;;;;5090501;28;20489;-72
2023/04/14 03:38:26;;;;;;;6.00;2.67;;;4.90;99.90;;;;;;5087369;28;20047;-70
2023/04/14 03:40:53;;;;;;;7.57;2.30;;;4.90;99.90;;;;;;5092855;28;20044;-70
2023/04/14 03:43:21;;;;;;;5.13;2.60;;;4.70;99.90;;;;;;5110346;28;20086;-71
2023/04/14 03:45:48;;;;;;;6.30;2.60;;;4.70;99.90;;;;;;5077421;28;20054;-70
2023/04/14 03:48:17;;;;;;;9.07;2.38;;;4.70;99.90;;;;;;5089397;28;20044;-74
2023/04/14 03:50:45;;;;;;;6.70;2.20;;;4.60;99.90;;;;;;5090383;28;20404;-71
2023/04/14 03:53:15;;;;;;;5.63;2.70;;;4.60;99.90;;;;;;5107149;28;20051;-70
2023/04/14 03:55:42;;;;;;;6.97;3.08;;;4.60;99.90;;;;;;5075733;28;20059;-70
2023/04/14 03:58:10;;;;;;;6.03;2.58;;;4.50;99.90;;;;;;5101029;28;20127;-70
2023/04/14 04:00:37;;;;;;;8.93;2.22;;;4.80;99.90;;;;;;5089779;28;20047;-70
2023/04/14 04:03:04;;;;;;;7.80;2.55;;;4.50;99.90;;;;;;5089803;28;20047;-70
2023/04/14 04:05:32;;;;;;;7.07;2.50;;;4.40;99.90;;;;;;5090873;28;20048;-70
2023/04/14 04:08:02;;;;;;;5.95;2.75;;;4.40;99.90;;;;;;5108402;28;20047;-70
2023/04/14 04:10:32;;;;;;;9.85;3.25;;;4.40;99.90;;;;;;5113885;28;20151;-71
2023/04/14 04:13:05;;;;;;;5.43;2.60;;;4.30;99.90;;;;;;5092173;28;20540;-71
2023/04/14 04:15:32;;;;;;;4.90;2.30;;;4.30;99.90;;;;;;5075279;28;20048;-70
2023/04/14 04:17:59;;;;;;;6.47;2.70;;;4.20;99.90;;;;;;5112426;28;20062;-70
2023/04/14 04:20:26;;;;;;;5.82;2.60;;;4.20;99.90;;;;;;5094837;28;20051;-70
2023/04/14 04:22:51;;;;;;;;;;;4.10;99.90;;;;;;5113730;28;20130;-70
2023/04/14 04:25:18;;;;;;;8.27;2.67;;;4.00;99.90;;;;;;5112971;28;20027;-74
2023/04/14 04:27:44;;;;;;;4.47;2.33;;;4.00;99.90;;;;;;5114079;28;20049;-70
2023/04/14 04:30:12;;;;;;;7.15;2.60;;;4.00;99.90;;;;;;5094751;28;20048;-70
2023/04/14 04:32:38;;;;;;;8.25;3.00;;;3.90;99.90;;;;;;5093907;28;20131;-70
2023/04/14 04:35:07;;;;;;;9.88;2.75;;;4.00;99.90;;;;;;5095843;28;20126;-71
2023/04/14 04:37:33;;;;;;;4.45;2.17;;;3.90;99.90;;;;;;5104193;28;20388;-70
2023/04/14 04:39:59;;;;;;;5.97;2.60;;;3.90;99.90;;;;;;5114055;28;20130;-70
2023/04/14 04:42:25;;;;;;;4.43;2.38;;;3.90;99.90;;;;;;5113126;28;20130;-70
2023/04/14 04:44:51;;;;;;;7.82;2.80;;;3.80;99.90;;;;;;5111610;28;20063;-71
2023/04/14 04:47:17;;;;;;;4.53;2.33;;;3.80;99.90;;;;;;5110540;28;20065;-71
2023/04/14 04:49:42;;;;;;;8.48;2.50;;;3.90;99.90;;;;;;5094431;28;20046;-70
2023/04/14 04:52:08;;;;;;;8.65;2.55;;;3.80;99.90;;;;;;5092117;28;20493;-71
2023/04/14 04:54:34;;;;;;;7.15;3.13;;;3.80;99.90;;;;;;5111722;28;20055;-70
2023/04/14 04:57:00;;;;;;;6.55;3.05;;;3.70;99.90;;;;;;5113027;28;20605;-70
2023/04/14 04:59:26;;;;;;;7.18;2.78;;;3.70;99.90;;;;;;5089949;28;20055;-70
2023/04/14 05:01:51;;;;;;;7.88;3.53;;;3.70;99.90;;;;;;5081155;28;20044;-70
2023/04/14 05:04:17;;;;;;;8.52;3.38;;;3.70;99.90;;;;;;5094933;28;20091;-71
2023/04/14 05:06:43;;;;;;;8.95;2.92;;;3.80;99.90;;;;;;5076486;28;20036;-70
2023/04/14 05:09:09;;;;;;;13.50;3.67;;;3.80;99.90;;;;;;5113345;28;20078;-70
2023/04/14 05:11:34;;;;;;;8.00;3.35;;;3.90;99.90;;;;;;5077970;28;20082;-71
2023/04/14 05:14:01;;;;;;;12.15;3.28;;;3.90;99.90;;;;;;5095349;28;20101;-70
2023/04/14 05:16:27;;;;;;;7.90;3.25;;;3.90;99.90;;;;;;5093755;28;20749;-73
2023/04/14 05:18:53;;;;;;;16.70;3.45;;;4.00;99.90;;;;;;5090050;28;20052;-70
2023/04/14 05:21:19;;;;;;;10.25;3.22;;;4.00;99.90;;;;;;5107842;28;20090;-70
2023/04/14 05:23:45;;;;;;;8.93;3.17;;;4.20;99.90;;;;;;5093842;28;20059;-70
2023/04/14 05:26:12;;;;;;;7.55;3.10;;;4.00;99.90;;;;;;5112747;28;20492;-70
2023/04/14 05:28:38;;;;;;;7.53;3.47;;;4.00;99.90;;;;;;5094465;28;20039;-70
2023/04/14 05:31:04;;;;;;;;;;;4.00;99.90;;;;;;5113375;28;20051;-71
2023/04/14 05:33:30;;;;;;;9.02;3.00;;;4.10;99.90;;;;;;5093330;28;19919;-70
2023/04/14 05:35:56;;;;;;;8.77;3.00;;;4.20;99.90;;;;;;5108714;28;20074;-70
2023/04/14 05:38:21;;;;;;;7.50;3.22;;;4.20;99.90;;;;;;5093556;28;20056;-70
2023/04/14 05:40:47;;;;;;;10.68;3.30;;;4.20;99.90;;;;;;5058261;28;20241;-70
2023/04/14 05:43:14;;;;;;;7.72;3.35;;;4.30;99.90;;;;;;5074116;28;20055;-70
2023/04/14 05:45:40;;;;;;;12.30;3.58;;;4.40;99.90;;;;;;5097287;28;20054;-70
2023/04/14 05:48:06;;;;;;;9.38;3.40;;;4.80;99.90;;;;;;5110661;28;20092;-70
2023/04/14 05:50:36;;;;;;;8.07;3.50;;;4.60;99.90;;;;;;5111749;28;20048;-70
2023/04/14 05:53:02;;;;;;;7.07;3.22;;;4.60;99.90;;;;;;5086274;28;20104;-71
2023/04/14 05:55:28;;;;;;;16.40;3.97;;;4.70;99.90;;;;;;5073843;28;20080;-71
2023/04/14 05:57:53;;;;;;;9.23;3.50;;;4.70;99.90;;;;;;5092066;28;20558;-70
2023/04/14 06:00:24;;;;;;;11.10;3.30;;;4.80;99.90;;;;;;5073956;28;20088;-71
2023/04/14 06:02:50;;;;;;;8.88;3.78;;;4.80;99.90;;;;;;5102813;28;20061;-70
2023/04/14 06:05:16;;;;;;;14.50;3.33;;;4.90;99.90;;;;;;5109731;28;20062;-70
2023/04/14 06:07:42;;;;;;;12.57;3.50;;;4.90;99.90;;;;;;5075989;28;20055;-71
2023/04/14 06:10:09;;;;;;;6.75;3.22;;;4.90;99.90;;;;;;5093767;28;20056;-70
2023/04/14 06:12:36;;;;;;;10.70;3.63;;;5.00;99.90;;;;;;5111587;28;20051;-70
2023/04/14 06:15:03;;;;;;;9.35;3.40;;;5.00;99.90;;;;;;5112041;28;20362;-71
2023/04/14 06:17:28;;;;;;;7.68;3.00;;;5.10;99.90;;;;;;5100799;28;20838;-73
2023/04/14 06:19:55;;;;;;;7.47;2.92;;;5.50;99.90;;;;;;5101034;28;20043;-70
2023/04/14 06:22:20;;;;;;;11.52;3.70;;;5.40;99.90;;;;;;5092032;28;20567;-69
2023/04/14 06:24:46;;;;;;;6.85;3.05;;;5.40;99.90;;;;;;5109249;28;20120;-69
2023/04/14 06:27:13;;;;;;;11.23;3.30;;;5.50;99.90;;;;;;5111734;28;20031;-68
2023/04/14 06:29:39;;;;;;;11.82;3.92;;;5.60;99.90;;;;;;5109859;28;20108;-71
2023/04/14 06:32:04;;;;;;;8.07;2.90;;;5.80;99.90;;;;;;5110678;28;20442;-69
2023/04/14 06:34:30;;;;;;;8.10;3.22;;;5.90;99.90;;;;;;5092940;28;20550;-69
2023/04/14 06:36:57;;;;;;;11.77;2.90;;;6.00;99.90;;;;;;5100545;28;20036;-68
2023/04/14 06:39:23;;;;;;;11.95;4.38;;;6.10;99.90;;;;;;5100137;28;20054;-69
2023/04/14 06:41:50;;;;;;;9.85;4.20;;;6.20;99.90;;;;;;5086754;28;20039;-69
2023/04/14 06:44:15;;;;;;;11.88;4.00;;;6.20;99.90;;;;;;5093460;28;20048;-69
2023/04/14 06:46:41;;;;;;;13.68;4.15;;;6.30;99.90;;;;;;5110039;28;20044;-70
2023/04/14 06:49:07;;;;;;;11.90;3.78;;;6.40;99.90;;;;;;5111082;28;20051;-68
2023/04/14 06:51:33;;;;;;;8.95;3.25;;;6.50;99.90;;;;;;5110338;28;20079;-69
2023/04/14 06:53:59;;;;;;;;;;;7.00;99.90;;;;;;5101336;28;20055;-69
2023/04/14 06:56:25;;;;;;;9.65;3.05;;;6.60;99.90;;;;;;5095661;28;19923;-69
2023/04/14 06:58:51;;;;;;;7.03;2.85;;;6.70;99.90;;;;;;5094487;28;20048;-69
2023/04/14 07:01:16;;;;;;;8.98;3.35;;;6.70;99.90;;;;;;5090966;28;20408;-68
2023/04/14 07:03:43;;;;;;;13.13;3.13;;;6.80;99.90;;;;;;5089458;28;20055;-70
2023/04/14 07:06:10;;;;;;;8.55;2.63;;;6.90;99.90;;;;;;5105046;28;20048;-69
2023/04/14 07:08:37;;;;;;;8.57;3.42;;;6.90;99.90;;;;;;5101662;28;20503;-69
2023/04/14 07:11:10;;;;;;;6.13;3.33;;;7.00;99.90;;;;;;5090877;28;20040;-69
2023/04/14 07:13:37;;;;;;;12.80;3.50;;;7.10;99.90;;;;;;5090301;28;20950;-70
2023/04/14 07:16:05;;;;;;;9.73;3.25;;;7.20;99.90;;;;;;5078198;28;20369;-70
2023/04/14 07:18:31;;;;;;;6.88;2.97;;;7.20;99.90;;;;;;5097296;28;20056;-75
2023/04/14 07:20:58;;;;;;;9.57;3.63;;;7.30;99.90;;;;;;5090648;28;20134;-68
2023/04/14 07:23:24;;;;;;;9.23;3.03;;;7.40;99.90;;;;;;5098806;28;20040;-70
2023/04/14 07:25:56;;;;;;;6.05;2.80;;;7.50;99.90;;;;;;5093204;28;20031;-68
2023/04/14 07:28:22;;;;;;;10.43;2.75;;;7.50;99.90;;;;;;5106797;28;20047;-71
2023/04/14 07:30:49;;;;;;;5.57;2.72;;;7.70;99.90;;;;;;5110392;28;20083;-69
2023/04/14 07:33:18;;;;;;;6.75;3.08;;;7.80;99.90;;;;;;5109274;28;20039;-74
2023/04/14 07:35:49;;;;;;;7.90;2.55;;;8.00;99.90;;;;;;5110472;28;20070;-71
2023/04/14 07:38:14;;;;;;;4.80;2.35;;;8.10;99.90;;;;;;5100572;28;20035;-76
2023/04/14 07:40:40;;;;;;;6.93;2.92;;;8.20;99.90;;;;;;5101132;28;20040;-77
2023/04/14 07:43:06;;;;;;;6.35;2.10;;;8.30;99.90;;;;;;5107002;28;20050;-76
2023/04/14 07:45:32;;;;;;;8.50;2.75;;;8.30;99.90;;;;;;5093932;28;20044;-79
2023/04/14 07:47:58;;;;;;;7.28;2.83;;;8.30;99.90;;;;;;5107773;27;20093;-78
2023/04/14 07:50:24;;;;;;;6.95;2.60;;;8.40;99.90;;;;;;5093005;28;20051;-76
2023/04/14 07:52:49;;;;;;;7.15;2.70;;;8.50;99.90;;;;;;5091960;28;20122;-77
2023/04/14 07:55:15;;;;;;;5.35;2.55;;;8.60;99.90;;;;;;5093654;28;20131;-76
2023/04/14 07:57:41;;;;;;;8.50;3.17;;;8.60;99.90;;;;;;5092879;28;20405;-69
2023/04/14 08:00:10;;;;;;;7.32;2.67;;;8.70;99.90;;;;;;5092940;28;20056;-69
2023/04/14 08:02:37;;;;;;;7.72;2.88;;;8.80;99.90;;;;;;5102241;28;20047;-71
2023/04/14 08:05:03;;;;;;;8.50;2.47;;;8.90;99.90;;;;;;5077338;28;20052;-69
2023/04/14 08:07:29;;;;;;;5.25;3.08;;;8.90;99.90;;;;;;5083365;28;20047;-75
2023/04/14 08:09:54;;;;;;;;;;;9.00;99.90;;;;;;5112865;28;20674;-74
2023/04/14 08:12:20;;;;;;;6.57;2.38;;;9.10;99.90;;;;;;5111334;28;19930;-74
2023/04/14 08:14:49;;;;;;;11.35;3.00;;;9.20;99.90;;;;;;5095211;28;20060;-75
2023/04/14 08:17:15;;;;;;;6.25;1.95;;;9.30;99.90;;;;;;5092854;28;20469;-70
2023/04/14 08:19:40;;;;;;;;;;;9.40;99.90;;;;;;5104879;28;20056;-70
2023/04/14 08:22:06;;;;;;;11.52;2.70;;;9.50;99.90;;;;;;5109848;28;20417;-69
2023/04/14 08:24:32;;;;;;;8.02;2.47;;;9.50;99.90;;;;;;5110977;28;20054;-71
2023/04/14 08:27:00;;;;;;;7.60;2.17;;;9.60;99.90;;;;;;5081180;28;20051;-69
2023/04/14 08:29:26;;;;;;;10.15;2.72;;;9.70;99.90;;;;;;5097978;28;20050;-69
2023/04/14 08:31:52;;;;;;;8.48;2.28;;;9.80;99.90;;;;;;5112740;28;20039;-70
2023/04/14 08:34:17;;;;;;;6.88;2.15;;;9.70;99.90;;;;;;5101370;28;20051;-73
2023/04/14 08:36:43;;;;;;;8.68;1.90;;;9.80;99.90;;;;;;5093630;28;20078;-73
2023/04/14 08:39:09;;;;;;;9.77;2.00;;;9.90;99.90;;;;;;5114054;28;20048;-70
2023/04/14 08:41:37;;;;;;;6.10;1.90;;;9.90;99.90;;;;;;5098394;28;20071;-69
2023/04/14 08:44:04;;;;;;;6.60;1.85;;;10.00;99.90;;;;;;5104307;28;20080;-69
2023/04/14 08:46:30;;;;;;;3.97;1.42;;;10.00;99.90;;;;;;5095335;28;20645;-72
2023/04/14 08:49:05;;;;;;;;;;;10.10;99.90;;;;;;5095911;28;20561;-69
2023/04/14 08:51:38;;;;;;;6.57;1.70;;;10.20;99.90;;;;;;5091665;28;20365;-74
2023/04/14 08:54:09;;;;;;;9.70;2.78;;;10.30;99.90;;;;;;5075911;28;20124;-69
2023/04/14 08:56:42;;;;;;;7.28;2.25;;;10.40;99.90;;;;;;5092579;28;20044;-71
2023/04/14 08:59:10;;;;;;;11.60;1.77;;;10.60;99.90;;;;;;5105354;28;20058;-70
2023/04/14 09:01:37;;;;;;;14.23;3.35;;;10.60;99.90;;;;;;5098526;28;20044;-70
2023/04/14 09:04:03;;;;;;;8.77;2.50;;;10.70;99.90;;;;;;5085942;28;20062;-69
2023/04/14 09:06:29;;;;;;;;;;;10.80;99.90;;;;;;5097713;28;20036;-77
2023/04/14 09:08:56;;;;;;;10.00;1.65;;;10.90;99.90;;;;;;5103831;28;19926;-69
2023/04/14 09:11:22;;;;;;;7.38;1.98;;;11.00;99.90;;;;;;5113237;28;20050;-72
2023/04/14 09:13:48;;;;;;;9.45;2.25;;;11.10;99.90;;;;;;5105860;28;20466;-72
2023/04/14 09:16:16;;;;;;;14.43;3.75;;;11.10;99.90;;;;;;5106098;28;20077;-72
2023/04/14 09:18:43;;;;;;;8.43;1.88;;;11.30;99.90;;;;;;5107883;28;20421;-76
2023/04/14 09:21:10;;;;;;;6.90;2.30;;;11.40;99.90;;;;;;5112780;28;20048;-68
2023/04/14 09:23:36;;;;;;;8.20;1.80;;;11.40;99.90;;;;;;5112271;28;20051;-67
2023/04/14 09:26:07;;;;;;;;;;;11.50;99.90;;;;;;5112995;28;20039;-68
2023/04/14 09:28:34;;;;;;;7.88;1.80;;;11.50;99.90;;;;;;5113218;28;19963;-73
2023/04/14 09:31:01;;;;;;;6.40;1.95;;;11.60;99.90;;;;;;5103179;28;20051;-72
2023/04/14 09:33:27;;;;;;;9.07;1.85;;;11.60;99.90;;;;;;5110770;28;20087;-72
2023/04/14 09:35:53;;;;;;;;;;;11.80;99.90;;;;;;5110527;28;20051;-73
2023/04/14 09:38:38;;;;;;;6.85;1.90;;;11.90;99.90;;;;;;5110490;28;19919;-75
2023/04/14 09:41:07;;;;;;;5.78;1.70;;;12.00;99.90;;;;;;5110450;28;20092;-74
2023/04/14 09:43:33;;;;;;;5.13;1.52;;;11.90;99.90;;;;;;5058578;28;20102;-71
2023/04/14 09:46:09;;;;;;;;;;;11.80;99.90;;;;;;5087211;28;20079;-71
2023/04/14 09:48:38;;;;;;;8.10;1.98;;;11.80;99.90;;;;;;5091111;28;19927;-73
2023/04/14 09:51:08;;;;;;;6.10;1.80;;;11.80;99.90;;;;;;5091615;28;20791;-71
2023/04/14 09:53:39;;;;;;;7.15;1.77;;;11.90;99.90;;;;;;5091475;28;20127;-72
2023/04/14 09:56:06;;;;;;;9.60;1.73;;;12.00;99.90;;;;;;5081025;28;20130;-71
2023/04/14 09:58:37;;;;;;;8.32;2.83;;;12.10;99.90;;;;;;5102564;28;20393;-71
2023/04/14 10:01:05;;;;;;;12.38;2.33;;;12.20;99.90;;;;;;5092393;28;20050;-71
2023/04/14 10:03:33;;;;;;;9.40;1.83;;;12.30;99.90;;;;;;5098246;28;20051;-71
2023/04/14 10:05:59;;;;;;;6.18;1.88;;;12.30;99.90;;;;;;5107201;28;20079;-72
2023/04/14 10:08:42;;;;;;;5.57;1.83;;;12.30;99.90;;;;;;5090856;28;20070;-71
2023/04/14 10:11:26;;;;;;;4.85;1.63;;;12.30;99.90;;;;;;5073546;28;20044;-69
2023/04/14 10:14:00;;;;;;;9.27;3.17;;;12.30;99.90;;;;;;5091162;28;20473;-69
2023/04/14 10:16:26;;;;;;;6.85;1.67;;;12.30;99.90;;;;;;5111574;28;20047;-70
2023/04/14 10:18:53;;;;;;;5.90;1.90;;;12.20;99.90;;;;;;5071943;28;20051;-69
2023/04/14 10:21:23;;;;;;;5.32;1.95;;;12.20;99.90;;;;;;5092617;28;20079;-70
2023/04/14 10:23:50;;;;;;;4.40;1.85;;;12.30;99.90;;;;;;5084371;28;20083;-69
2023/04/14 10:26:16;;;;;;;6.88;1.55;;;12.40;99.90;;;;;;5082228;28;20055;-70
2023/04/14 10:28:46;;;;;;;8.52;2.08;;;12.50;99.90;;;;;;5111933;28;20043;-70
2023/04/14 10:31:26;;;;;;;5.25;2.03;;;12.60;99.90;;;;;;5111757;28;20147;-72
2023/04/14 10:33:52;;;;;;;7.50;2.20;;;12.80;99.90;;;;;;5075511;28;20130;-72
2023/04/14 10:36:27;;;;;;;7.93;2.03;;;13.00;99.90;;;;;;5104642;28;20047;-73
2023/04/14 10:39:04;;;;;;;6.15;1.85;;;13.10;99.90;;;;;;5080202;28;20408;-73
2023/04/14 10:41:49;;;;;;;7.47;2.25;;;13.30;99.90;;;;;;5094195;28;20047;-72
2023/04/14 10:44:34;;;;;;;6.57;2.33;;;13.30;99.90;;;;;;5095252;28;20048;-72
2023/04/14 10:47:06;;;;;;;10.50;2.20;;;13.30;99.90;;;;;;5071509;28;20040;-72
2023/04/14 10:49:37;;;;;;;4.55;1.60;;;13.50;99.90;;;;;;5110234;28;20451;-73
2023/04/14 10:52:05;;;;;;;8.48;2.50;;;13.80;99.90;;;;;;5090860;28;20051;-71
2023/04/14 10:54:59;;;;;;;6.68;1.83;;;14.00;99.90;;;;;;5109601;28;20050;-71
2023/04/14 10:57:26;;;;;;;8.63;1.98;;;14.20;98.00;;;;;;5093165;28;20609;-72
2023/04/14 10:59:59;;;;;;;6.55;2.50;;;14.50;97.50;;;;;;5088857;28;20044;-77
2023/04/14 11:02:27;;;;;;;5.72;1.92;;;14.50;94.60;;;;;;5074556;28;20036;-74
2023/04/14 11:05:12;;;;;;;8.38;2.00;;;14.40;96.60;;;;;;5090131;28;20063;-71
2023/04/14 11:07:45;;;;;;;5.35;1.70;;;14.40;97.50;;;;;;5056402;28;20131;-72
2023/04/14 11:10:20;;;;;;;5.45;1.90;;;14.60;98.30;;;;;;5098499;28;20135;-70
2023/04/14 11:12:47;;;;;;;5.57;1.88;;;14.80;96.50;;;;;;5101591;28;20074;-77
2023/04/14 11:15:16;;;;;;;8.10;2.58;;;15.00;95.30;;;;;;5101251;28;20051;-70
2023/04/14 11:17:43;;;;;;;6.72;2.17;;;15.20;94.10;;;;;;5085775;28;20127;-73
2023/04/14 11:20:16;;;;;;;5.78;1.60;;;15.60;95.00;;;;;;5079426;28;20477;-75
2023/04/14 11:22:47;;;;;;;4.20;1.65;;;16.10;93.70;;;;;;5090334;28;20055;-68
2023/04/14 11:25:15;;;;;;;7.30;1.90;;;16.60;92.40;;;;;;5090343;28;20040;-74
2023/04/14 11:27:41;;;;;;;6.30;2.17;;;17.10;92.50;;;;;;5064071;28;20040;-72
2023/04/14 11:30:18;;;;;;;5.35;1.98;;;17.50;83.90;;;;;;5107786;28;20048;-70
2023/04/14 11:32:49;;;;;;;4.85;1.80;;;17.40;71.50;;;;;;5091866;28;20086;-71
2023/04/14 11:35:15;;;;;;;8.00;1.95;;;17.20;77.50;;;;;;5104750;28;20196;-70
2023/04/14 11:37:41;;;;;;;7.45;2.50;;;17.40;80.00;;;;;;5107866;28;20073;-70
2023/04/14 11:40:11;;;;;;;8.10;1.65;;;18.00;79.90;;;;;;5109758;28;20400;-78
2023/04/14 11:42:37;;;;;;;5.82;1.60;;;18.40;74.80;;;;;;5090169;28;20446;-78
2023/04/14 11:45:04;;;;;;;4.78;1.48;;;18.80;74.20;;;;;;5093232;28;20152;-72
2023/04/14 11:47:30;;;;;;;4.18;1.60;;;18.90;68.50;;;;;;5104273;28;20130;-74
2023/04/14 11:49:59;;;;;;;5.65;1.65;;;18.90;69.70;;;;;;5109440;28;20450;-75
2023/04/14 11:52:25;;;;;;;6.32;1.88;;;19.10;69.40;;;;;;5109026;28;20047;-74
2023/04/14 11:54:51;;;;;;;6.75;1.70;;;19.50;69.40;;;;;;5092603;28;20060;-74
2023/04/14 11:57:17;;;;;;;7.18;2.20;;;20.00;69.00;;;;;;5110367;28;20044;-75
2023/04/14 11:59:44;;;;;;;6.57;1.80;;;20.50;68.30;;;;;;5110851;28;20485;-73
2023/04/14 12:02:28;;;;;;;6.75;1.80;;;20.80;65.80;;;;;;5109202;28;20078;-70
2023/04/14 12:04:54;;;;;;;7.05;2.10;;;20.70;60.40;;;;;;5089892;28;20138;-73
2023/04/14 12:07:20;;;;;;;5.38;1.90;;;20.60;61.80;;;;;;5099437;28;20131;-70
2023/04/14 12:09:48;;;;;;;5.25;2.00;;;20.90;61.00;;;;;;5099522;28;20059;-66
2023/04/14 12:12:15;;;;;;;6.50;1.50;;;21.00;61.50;;;;;;5105924;28;20387;-71
2023/04/14 12:14:46;;;;;;;7.43;1.90;;;21.10;60.90;;;;;;5107056;28;20077;-71
2023/04/14 12:17:14;;;;;;;9.48;2.10;;;21.00;58.30;;;;;;5108342;28;20097;-68
2023/04/14 12:19:41;;;;;;;5.88;1.95;;;20.90;59.80;;;;;;5110037;28;20082;-69
2023/04/14 12:22:08;;;;;;;7.15;2.28;;;21.20;61.20;;;;;;5109004;28;20040;-68
2023/04/14 12:24:38;;;;;;;5.85;1.80;;;22.10;61.50;;;;;;5108247;28;20093;-72
2023/04/14 12:27:05;;;;;;;8.65;1.83;;;22.40;59.70;;;;;;5096139;28;20036;-72
2023/04/14 12:29:37;;;;;;;6.60;2.00;;;21.70;58.40;;;;;;5095738;28;20059;-71
2023/04/14 12:32:13;;;;;;;5.10;1.70;;;20.90;57.90;;;;;;5112890;28;20082;-71
2023/04/14 12:34:39;;;;;;;7.20;1.70;;;20.00;57.60;;;;;;5113827;28;20081;-72
2023/04/14 12:37:09;;;;;;;10.05;2.30;;;20.00;61.00;;;;;;5112286;28;20072;-71
2023/04/14 12:39:57;;;;;;;7.63;1.95;;;21.40;60.10;;;;;;5114149;28;20044;-72
2023/04/14 12:42:24;;;;;;;5.45;2.00;;;23.00;55.80;;;;;;5113668;28;20104;-73
2023/04/14 12:44:59;;;;;;;4.05;1.40;;;24.70;57.30;;;;;;5095919;28;20460;-74
2023/04/14 12:47:34;;;;;;;5.82;1.63;;;25.80;51.60;;;;;;5107301;28;20055;-73
2023/04/14 12:50:20;;;;;;;5.43;1.85;;;26.20;50.60;;;;;;5092831;28;20087;-78
2023/04/14 12:52:46;;;;;;;8.00;2.13;;;26.00;49.30;;;;;;5105620;28;20116;-71
2023/04/14 12:55:21;;;;;;;4.40;1.80;;;25.40;48.90;;;;;;5113035;28;20591;-73
2023/04/14 12:57:47;;;;;;;6.47;1.83;;;25.20;48.50;;;;;;5113369;28;20180;-73
2023/04/14 13:00:13;;;;;;;6.15;1.60;;;25.50;49.30;;;;;;5112843;28;20474;-73
2023/04/14 13:02:39;;;;;;;6.65;2.17;;;25.70;48.50;;;;;;5094953;28;20055;-74